sensor_id;sensor_type;location;lat;lon;timestamp;temperature;humidity
42085;DHT22;27746;52.228;20.890;2023-04-24T00:02:01;13.70;76.50
42085;DHT22;27746;52.228;20.890;2023-04-24T00:04:29;13.70;76.70
42085;DHT22;27746;52.228;20.890;2023-04-24T00:06:57;13.70;76.80
42085;DHT22;27746;52.228;20.890;2023-04-24T00:09:25;13.60;76.70
42085;DHT22;27746;52.228;20.890;2023-04-24T00:11:52;13.60;76.80
42085;DHT22;27746;52.228;20.890;2023-04-24T00:14:20;15.40;78.10
42085;DHT22;27746;52.228;20.890;2023-04-24T00:16:48;13.60;77.30
42085;DHT22;27746;52.228;20.890;2023-04-24T00:21:42;13.60;76.60
42085;DHT22;27746;52.228;20.890;2023-04-24T00:24:09;13.60;77.20
42085;DHT22;27746;52.228;20.890;2023-04-24T00:26:36;13.60;77.60
42085;DHT22;27746;52.228;20.890;2023-04-24T00:29:03;13.50;77.50
42085;DHT22;27746;52.228;20.890;2023-04-24T00:31:30;13.50;77.70
42085;DHT22;27746;52.228;20.890;2023-04-24T00:33:58;13.50;77.80
42085;DHT22;27746;52.228;20.890;2023-04-24T00:36:25;13.50;77.80
42085;DHT22;27746;52.228;20.890;2023-04-24T00:38:52;13.50;77.80
42085;DHT22;27746;52.228;20.890;2023-04-24T00:41:19;13.50;77.80
42085;DHT22;27746;52.228;20.890;2023-04-24T00:43:46;13.50;78.00
42085;DHT22;27746;52.228;20.890;2023-04-24T00:46:13;13.40;77.80
42085;DHT22;27746;52.228;20.890;2023-04-24T00:48:40;13.50;78.10
42085;DHT22;27746;52.228;20.890;2023-04-24T00:51:09;13.30;77.40
42085;DHT22;27746;52.228;20.890;2023-04-24T00:53:36;13.40;78.20
42085;DHT22;27746;52.228;20.890;2023-04-24T00:56:02;13.30;78.50
42085;DHT22;27746;52.228;20.890;2023-04-24T00:58:30;13.30;78.40
42085;DHT22;27746;52.228;20.890;2023-04-24T01:00:58;13.30;78.50
42085;DHT22;27746;52.228;20.890;2023-04-24T01:03:28;13.20;78.40
42085;DHT22;27746;52.228;20.890;2023-04-24T01:08:24;13.20;77.60
42085;DHT22;27746;52.228;20.890;2023-04-24T01:13:20;13.10;77.90
42085;DHT22;27746;52.228;20.890;2023-04-24T01:15:47;13.10;78.60
42085;DHT22;27746;52.228;20.890;2023-04-24T01:18:15;13.10;78.60
42085;DHT22;27746;52.228;20.890;2023-04-24T01:20:43;13.20;78.50
42085;DHT22;27746;52.228;20.890;2023-04-24T01:23:11;13.20;78.60
42085;DHT22;27746;52.228;20.890;2023-04-24T01:25:38;13.20;78.80
42085;DHT22;27746;52.228;20.890;2023-04-24T01:28:06;13.20;79.30
42085;DHT22;27746;52.228;20.890;2023-04-24T01:30:32;13.20;78.60
42085;DHT22;27746;52.228;20.890;2023-04-24T01:32:59;13.30;79.10
42085;DHT22;27746;52.228;20.890;2023-04-24T01:37:54;13.10;78.20
42085;DHT22;27746;52.228;20.890;2023-04-24T01:40:22;13.10;78.80
42085;DHT22;27746;52.228;20.890;2023-04-24T01:42:49;13.10;79.30
42085;DHT22;27746;52.228;20.890;2023-04-24T01:45:17;13.10;78.60
42085;DHT22;27746;52.228;20.890;2023-04-24T01:47:44;13.00;79.10
42085;DHT22;27746;52.228;20.890;2023-04-24T01:50:11;13.00;78.60
42085;DHT22;27746;52.228;20.890;2023-04-24T01:52:38;11.80;78.80
42085;DHT22;27746;52.228;20.890;2023-04-24T01:55:06;13.00;79.10
42085;DHT22;27746;52.228;20.890;2023-04-24T01:57:35;13.00;78.30
42085;DHT22;27746;52.228;20.890;2023-04-24T02:00:03;13.20;79.40
42085;DHT22;27746;52.228;20.890;2023-04-24T02:02:31;13.10;78.80
42085;DHT22;27746;52.228;20.890;2023-04-24T02:07:25;13.00;78.60
42085;DHT22;27746;52.228;20.890;2023-04-24T02:09:52;12.90;78.90
42085;DHT22;27746;52.228;20.890;2023-04-24T02:12:19;12.80;79.20
42085;DHT22;27746;52.228;20.890;2023-04-24T02:14:47;12.80;80.10
42085;DHT22;27746;52.228;20.890;2023-04-24T02:17:14;12.80;79.50
42085;DHT22;27746;52.228;20.890;2023-04-24T02:19:41;12.80;80.30
42085;DHT22;27746;52.228;20.890;2023-04-24T02:22:08;12.80;80.20
42085;DHT22;27746;52.228;20.890;2023-04-24T02:24:36;12.70;80.00
42085;DHT22;27746;52.228;20.890;2023-04-24T02:27:03;12.70;80.30
42085;DHT22;27746;52.228;20.890;2023-04-24T02:29:30;12.70;80.60
42085;DHT22;27746;52.228;20.890;2023-04-24T02:31:58;12.60;80.30
42085;DHT22;27746;52.228;20.890;2023-04-24T02:34:25;12.70;81.50
42085;DHT22;27746;52.228;20.890;2023-04-24T02:36:52;12.60;80.50
42085;DHT22;27746;52.228;20.890;2023-04-24T02:39:20;12.60;80.80
42085;DHT22;27746;52.228;20.890;2023-04-24T02:41:47;12.60;80.60
42085;DHT22;27746;52.228;20.890;2023-04-24T02:44:14;13.50;81.20
42085;DHT22;27746;52.228;20.890;2023-04-24T02:46:42;12.60;81.10
42085;DHT22;27746;52.228;20.890;2023-04-24T02:49:11;12.60;80.90
42085;DHT22;27746;52.228;20.890;2023-04-24T02:51:38;12.60;80.80
42085;DHT22;27746;52.228;20.890;2023-04-24T02:54:06;12.70;81.60
42085;DHT22;27746;52.228;20.890;2023-04-24T02:56:33;12.60;80.20
42085;DHT22;27746;52.228;20.890;2023-04-24T02:59:00;12.60;80.60
42085;DHT22;27746;52.228;20.890;2023-04-24T03:01:27;12.60;80.90
42085;DHT22;27746;52.228;20.890;2023-04-24T03:06:23;12.60;79.90
42085;DHT22;27746;52.228;20.890;2023-04-24T03:08:50;12.40;79.80
42085;DHT22;27746;52.228;20.890;2023-04-24T03:11:16;12.60;80.90
42085;DHT22;27746;52.228;20.890;2023-04-24T03:13:43;12.50;79.80
42085;DHT22;27746;52.228;20.890;2023-04-24T03:18:37;12.40;79.80
42085;DHT22;27746;52.228;20.890;2023-04-24T03:23:33;12.40;79.60
42085;DHT22;27746;52.228;20.890;2023-04-24T03:26:00;12.40;79.80
42085;DHT22;27746;52.228;20.890;2023-04-24T03:28:27;12.50;79.60
42085;DHT22;27746;52.228;20.890;2023-04-24T03:30:54;12.40;79.40
42085;DHT22;27746;52.228;20.890;2023-04-24T03:35:48;12.40;79.70
42085;DHT22;27746;52.228;20.890;2023-04-24T03:38:15;12.40;79.70
42085;DHT22;27746;52.228;20.890;2023-04-24T03:40:43;12.30;79.80
42085;DHT22;27746;52.228;20.890;2023-04-24T03:43:11;12.30;80.00
42085;DHT22;27746;52.228;20.890;2023-04-24T03:53:00;12.30;80.30
42085;DHT22;27746;52.228;20.890;2023-04-24T03:55:27;12.30;80.10
42085;DHT22;27746;52.228;20.890;2023-04-24T03:57:55;12.30;80.20
42085;DHT22;27746;52.228;20.890;2023-04-24T04:00:22;13.50;81.00
42085;DHT22;27746;52.228;20.890;2023-04-24T04:07:43;12.30;80.40
42085;DHT22;27746;52.228;20.890;2023-04-24T04:15:07;12.10;80.40
42085;DHT22;27746;52.228;20.890;2023-04-24T04:17:34;12.30;80.30
42085;DHT22;27746;52.228;20.890;2023-04-24T04:22:32;12.20;80.30
42085;DHT22;27746;52.228;20.890;2023-04-24T04:24:59;12.30;80.40
42085;DHT22;27746;52.228;20.890;2023-04-24T04:29:54;12.50;80.90
42085;DHT22;27746;52.228;20.890;2023-04-24T04:32:23;12.50;80.20
42085;DHT22;27746;52.228;20.890;2023-04-24T04:34:50;12.50;80.30
42085;DHT22;27746;52.228;20.890;2023-04-24T04:37:18;12.50;80.10
42085;DHT22;27746;52.228;20.890;2023-04-24T04:39:46;12.50;80.20
42085;DHT22;27746;52.228;20.890;2023-04-24T04:49:38;12.50;80.80
42085;DHT22;27746;52.228;20.890;2023-04-24T04:52:05;12.50;80.70
42085;DHT22;27746;52.228;20.890;2023-04-24T04:56:59;12.70;80.90
42085;DHT22;27746;52.228;20.890;2023-04-24T05:06:49;13.10;80.30
42085;DHT22;27746;52.228;20.890;2023-04-24T05:09:16;13.10;80.50
42085;DHT22;27746;52.228;20.890;2023-04-24T05:11:43;13.20;79.70
42085;DHT22;27746;52.228;20.890;2023-04-24T05:14:10;13.30;79.90
42085;DHT22;27746;52.228;20.890;2023-04-24T05:16:38;13.30;80.30
42085;DHT22;27746;52.228;20.890;2023-04-24T05:19:05;13.40;80.70
42085;DHT22;27746;52.228;20.890;2023-04-24T05:21:32;13.50;79.80
42085;DHT22;27746;52.228;20.890;2023-04-24T05:24:01;13.60;79.70
42085;DHT22;27746;52.228;20.890;2023-04-24T05:26:27;13.60;79.60
42085;DHT22;27746;52.228;20.890;2023-04-24T05:28:54;13.60;79.70
42085;DHT22;27746;52.228;20.890;2023-04-24T05:31:21;13.70;79.70
42085;DHT22;27746;52.228;20.890;2023-04-24T05:33:48;13.70;79.70
42085;DHT22;27746;52.228;20.890;2023-04-24T05:36:15;13.80;79.90
42085;DHT22;27746;52.228;20.890;2023-04-24T05:38:42;13.80;79.50
42085;DHT22;27746;52.228;20.890;2023-04-24T05:41:10;13.90;80.10
42085;DHT22;27746;52.228;20.890;2023-04-24T05:43:37;13.90;79.70
42085;DHT22;27746;52.228;20.890;2023-04-24T05:46:04;14.00;80.40
42085;DHT22;27746;52.228;20.890;2023-04-24T05:48:31;14.00;79.60
42085;DHT22;27746;52.228;20.890;2023-04-24T05:50:58;14.10;79.10
42085;DHT22;27746;52.228;20.890;2023-04-24T05:53:27;14.20;79.10
42085;DHT22;27746;52.228;20.890;2023-04-24T05:55:54;14.20;80.60
42085;DHT22;27746;52.228;20.890;2023-04-24T05:58:22;14.30;79.00
42085;DHT22;27746;52.228;20.890;2023-04-24T06:00:49;14.40;78.70
42085;DHT22;27746;52.228;20.890;2023-04-24T06:03:16;14.40;78.80
42085;DHT22;27746;52.228;20.890;2023-04-24T06:05:43;14.50;79.00
42085;DHT22;27746;52.228;20.890;2023-04-24T06:08:10;14.60;78.50
42085;DHT22;27746;52.228;20.890;2023-04-24T06:10:37;14.80;78.40
42085;DHT22;27746;52.228;20.890;2023-04-24T06:13:04;14.90;78.20
42085;DHT22;27746;52.228;20.890;2023-04-24T06:15:32;15.10;78.00
42085;DHT22;27746;52.228;20.890;2023-04-24T06:17:59;15.20;78.00
42085;DHT22;27746;52.228;20.890;2023-04-24T06:20:26;15.40;77.30
42085;DHT22;27746;52.228;20.890;2023-04-24T06:22:53;15.60;76.60
42085;DHT22;27746;52.228;20.890;2023-04-24T06:25:21;15.70;76.30
42085;DHT22;27746;52.228;20.890;2023-04-24T06:27:48;15.90;75.80
42085;DHT22;27746;52.228;20.890;2023-04-24T06:30:15;16.10;75.20
42085;DHT22;27746;52.228;20.890;2023-04-24T06:32:44;16.10;75.30
42085;DHT22;27746;52.228;20.890;2023-04-24T06:35:11;16.20;74.10
42085;DHT22;27746;52.228;20.890;2023-04-24T06:37:38;16.40;74.70
42085;DHT22;27746;52.228;20.890;2023-04-24T06:40:06;16.50;74.10
42085;DHT22;27746;52.228;20.890;2023-04-24T06:42:33;16.70;74.30
42085;DHT22;27746;52.228;20.890;2023-04-24T06:45:01;16.80;73.70
42085;DHT22;27746;52.228;20.890;2023-04-24T06:47:28;16.90;73.10
42085;DHT22;27746;52.228;20.890;2023-04-24T06:49:57;14.80;71.60
42085;DHT22;27746;52.228;20.890;2023-04-24T06:52:24;17.10;72.20
42085;DHT22;27746;52.228;20.890;2023-04-24T06:54:51;17.30;71.90
42085;DHT22;27746;52.228;20.890;2023-04-24T06:57:18;17.40;72.90
42085;DHT22;27746;52.228;20.890;2023-04-24T06:59:45;20.70;74.00
42085;DHT22;27746;52.228;20.890;2023-04-24T07:02:12;17.70;69.80
42085;DHT22;27746;52.228;20.890;2023-04-24T07:04:38;17.80;70.30
42085;DHT22;27746;52.228;20.890;2023-04-24T07:07:07;17.90;69.90
42085;DHT22;27746;52.228;20.890;2023-04-24T07:09:35;18.00;69.50
42085;DHT22;27746;52.228;20.890;2023-04-24T07:12:04;18.20;70.70
42085;DHT22;27746;52.228;20.890;2023-04-24T07:14:31;18.40;69.90
42085;DHT22;27746;52.228;20.890;2023-04-24T07:16:58;18.50;69.00
42085;DHT22;27746;52.228;20.890;2023-04-24T07:19:25;18.70;69.00
42085;DHT22;27746;52.228;20.890;2023-04-24T07:21:52;18.80;69.20
42085;DHT22;27746;52.228;20.890;2023-04-24T07:24:21;19.00;67.50
42085;DHT22;27746;52.228;20.890;2023-04-24T07:26:48;19.00;67.10
42085;DHT22;27746;52.228;20.890;2023-04-24T07:29:18;19.10;67.00
42085;DHT22;27746;52.228;20.890;2023-04-24T07:31:46;19.20;67.30
42085;DHT22;27746;52.228;20.890;2023-04-24T07:34:13;19.30;67.60
42085;DHT22;27746;52.228;20.890;2023-04-24T07:36:41;19.40;67.70
42085;DHT22;27746;52.228;20.890;2023-04-24T07:39:08;19.40;66.60
42085;DHT22;27746;52.228;20.890;2023-04-24T07:41:36;19.40;66.90
42085;DHT22;27746;52.228;20.890;2023-04-24T07:44:03;19.40;67.20
42085;DHT22;27746;52.228;20.890;2023-04-24T07:46:30;19.60;67.40
42085;DHT22;27746;52.228;20.890;2023-04-24T07:48:57;19.70;67.10
42085;DHT22;27746;52.228;20.890;2023-04-24T07:51:24;19.80;67.10
42085;DHT22;27746;52.228;20.890;2023-04-24T07:53:53;20.10;67.60
42085;DHT22;27746;52.228;20.890;2023-04-24T07:56:20;20.20;68.00
42085;DHT22;27746;52.228;20.890;2023-04-24T07:58:48;20.40;68.00
42085;DHT22;27746;52.228;20.890;2023-04-24T08:01:15;20.60;67.90
42085;DHT22;27746;52.228;20.890;2023-04-24T08:03:42;20.70;67.10
42085;DHT22;27746;52.228;20.890;2023-04-24T08:06:09;20.90;64.90
42085;DHT22;27746;52.228;20.890;2023-04-24T08:08:36;21.00;65.10
42085;DHT22;27746;52.228;20.890;2023-04-24T08:11:03;21.00;64.80
42085;DHT22;27746;52.228;20.890;2023-04-24T08:13:30;20.90;65.60
42085;DHT22;27746;52.228;20.890;2023-04-24T08:15:58;20.60;64.60
42085;DHT22;27746;52.228;20.890;2023-04-24T08:18:25;20.50;64.90
42085;DHT22;27746;52.228;20.890;2023-04-24T08:20:52;20.50;64.40
42085;DHT22;27746;52.228;20.890;2023-04-24T08:23:19;20.40;64.30
42085;DHT22;27746;52.228;20.890;2023-04-24T08:25:46;20.40;64.90
42085;DHT22;27746;52.228;20.890;2023-04-24T08:28:12;20.50;65.20
42085;DHT22;27746;52.228;20.890;2023-04-24T08:30:45;20.60;66.30
42085;DHT22;27746;52.228;20.890;2023-04-24T08:33:13;20.70;66.00
42085;DHT22;27746;52.228;20.890;2023-04-24T08:35:43;20.70;64.90
42085;DHT22;27746;52.228;20.890;2023-04-24T08:38:10;20.50;65.40
42085;DHT22;27746;52.228;20.890;2023-04-24T08:40:37;20.30;66.20
42085;DHT22;27746;52.228;20.890;2023-04-24T08:43:05;20.10;67.30
42085;DHT22;27746;52.228;20.890;2023-04-24T08:45:32;19.90;67.70
42085;DHT22;27746;52.228;20.890;2023-04-24T08:47:59;19.70;68.90
42085;DHT22;27746;52.228;20.890;2023-04-24T08:50:29;19.70;69.10
42085;DHT22;27746;52.228;20.890;2023-04-24T08:52:56;19.70;69.20
42085;DHT22;27746;52.228;20.890;2023-04-24T08:55:24;19.70;69.10
42085;DHT22;27746;52.228;20.890;2023-04-24T08:57:52;19.80;69.60
42085;DHT22;27746;52.228;20.890;2023-04-24T09:00:20;19.80;68.70
42085;DHT22;27746;52.228;20.890;2023-04-24T09:02:49;19.80;69.20
42085;DHT22;27746;52.228;20.890;2023-04-24T09:05:16;19.90;68.50
42085;DHT22;27746;52.228;20.890;2023-04-24T09:07:49;20.00;67.40
42085;DHT22;27746;52.228;20.890;2023-04-24T09:10:24;20.10;66.00
42085;DHT22;27746;52.228;20.890;2023-04-24T09:12:51;20.20;65.40
42085;DHT22;27746;52.228;20.890;2023-04-24T09:15:18;20.30;64.90
42085;DHT22;27746;52.228;20.890;2023-04-24T09:17:46;20.40;63.90
42085;DHT22;27746;52.228;20.890;2023-04-24T09:20:13;20.50;64.40
42085;DHT22;27746;52.228;20.890;2023-04-24T09:22:40;20.50;64.50
42085;DHT22;27746;52.228;20.890;2023-04-24T09:25:09;20.70;64.30
42085;DHT22;27746;52.228;20.890;2023-04-24T09:27:42;20.80;65.00
42085;DHT22;27746;52.228;20.890;2023-04-24T09:30:10;20.90;64.50
42085;DHT22;27746;52.228;20.890;2023-04-24T09:32:37;20.90;64.50
42085;DHT22;27746;52.228;20.890;2023-04-24T09:35:09;20.90;64.20
42085;DHT22;27746;52.228;20.890;2023-04-24T09:37:37;21.10;65.00
42085;DHT22;27746;52.228;20.890;2023-04-24T09:40:14;21.30;64.60
42085;DHT22;27746;52.228;20.890;2023-04-24T09:42:44;21.50;65.30
42085;DHT22;27746;52.228;20.890;2023-04-24T09:45:12;21.80;64.90
42085;DHT22;27746;52.228;20.890;2023-04-24T09:47:39;22.00;63.70
42085;DHT22;27746;52.228;20.890;2023-04-24T09:50:10;22.20;63.00
42085;DHT22;27746;52.228;20.890;2023-04-24T09:52:40;22.30;64.00
42085;DHT22;27746;52.228;20.890;2023-04-24T09:55:13;22.50;63.10
42085;DHT22;27746;52.228;20.890;2023-04-24T09:57:52;22.70;61.50
42085;DHT22;27746;52.228;20.890;2023-04-24T10:00:23;22.80;62.60
42085;DHT22;27746;52.228;20.890;2023-04-24T10:02:54;23.00;61.60
42085;DHT22;27746;52.228;20.890;2023-04-24T10:05:23;23.30;61.70
42085;DHT22;27746;52.228;20.890;2023-04-24T10:07:51;23.50;61.90
42085;DHT22;27746;52.228;20.890;2023-04-24T10:10:19;23.70;60.50
42085;DHT22;27746;52.228;20.890;2023-04-24T10:12:47;23.80;59.90
42085;DHT22;27746;52.228;20.890;2023-04-24T10:15:15;23.90;59.40
42085;DHT22;27746;52.228;20.890;2023-04-24T10:17:47;23.90;59.20
42085;DHT22;27746;52.228;20.890;2023-04-24T10:20:18;24.00;58.10
42085;DHT22;27746;52.228;20.890;2023-04-24T10:22:47;24.50;58.20
42085;DHT22;27746;52.228;20.890;2023-04-24T10:25:16;24.00;57.40
42085;DHT22;27746;52.228;20.890;2023-04-24T10:27:45;24.00;57.00
42085;DHT22;27746;52.228;20.890;2023-04-24T10:30:13;24.00;55.10
42085;DHT22;27746;52.228;20.890;2023-04-24T10:32:40;23.90;55.80
42085;DHT22;27746;52.228;20.890;2023-04-24T10:35:08;24.00;56.50
42085;DHT22;27746;52.228;20.890;2023-04-24T10:37:37;24.30;56.70
42085;DHT22;27746;52.228;20.890;2023-04-24T10:40:05;24.70;57.10
42085;DHT22;27746;52.228;20.890;2023-04-24T10:42:33;25.10;56.60
42085;DHT22;27746;52.228;20.890;2023-04-24T10:45:06;25.30;55.60
42085;DHT22;27746;52.228;20.890;2023-04-24T10:47:40;25.40;55.00
42085;DHT22;27746;52.228;20.890;2023-04-24T10:50:08;25.50;54.70
42085;DHT22;27746;52.228;20.890;2023-04-24T10:52:45;25.70;53.70
42085;DHT22;27746;52.228;20.890;2023-04-24T10:55:12;25.80;53.40
42085;DHT22;27746;52.228;20.890;2023-04-24T10:57:39;25.80;53.00
42085;DHT22;27746;52.228;20.890;2023-04-24T11:00:15;25.50;53.10
42085;DHT22;27746;52.228;20.890;2023-04-24T11:02:42;25.20;53.20
42085;DHT22;27746;52.228;20.890;2023-04-24T11:05:15;25.10;54.30
42085;DHT22;27746;52.228;20.890;2023-04-24T11:08:11;25.00;55.10
42085;DHT22;27746;52.228;20.890;2023-04-24T11:10:39;25.10;54.60
42085;DHT22;27746;52.228;20.890;2023-04-24T11:13:07;25.30;54.70
42085;DHT22;27746;52.228;20.890;2023-04-24T11:15:36;25.50;54.90
42085;DHT22;27746;52.228;20.890;2023-04-24T11:18:03;25.50;52.90
42085;DHT22;27746;52.228;20.890;2023-04-24T11:20:42;25.40;53.30
42085;DHT22;27746;52.228;20.890;2023-04-24T11:23:12;25.20;53.20
42085;DHT22;27746;52.228;20.890;2023-04-24T11:25:39;25.30;52.60
42085;DHT22;27746;52.228;20.890;2023-04-24T11:28:06;25.30;52.50
42085;DHT22;27746;52.228;20.890;2023-04-24T11:30:33;25.30;52.20
42085;DHT22;27746;52.228;20.890;2023-04-24T11:33:05;25.30;53.50
42085;DHT22;27746;52.228;20.890;2023-04-24T11:35:35;25.50;53.00
42085;DHT22;27746;52.228;20.890;2023-04-24T11:38:04;25.50;53.30
42085;DHT22;27746;52.228;20.890;2023-04-24T11:40:31;27.00;53.90
42085;DHT22;27746;52.228;20.890;2023-04-24T11:43:00;25.40;52.50
42085;DHT22;27746;52.228;20.890;2023-04-24T11:45:28;25.40;52.10
42085;DHT22;27746;52.228;20.890;2023-04-24T11:47:55;25.30;52.00
42085;DHT22;27746;52.228;20.890;2023-04-24T11:50:25;25.30;52.60
42085;DHT22;27746;52.228;20.890;2023-04-24T11:52:53;25.40;52.80
42085;DHT22;27746;52.228;20.890;2023-04-24T11:55:25;25.50;51.80
42085;DHT22;27746;52.228;20.890;2023-04-24T11:57:54;25.60;52.30
42085;DHT22;27746;52.228;20.890;2023-04-24T12:00:23;25.80;51.50
42085;DHT22;27746;52.228;20.890;2023-04-24T12:02:50;25.90;50.00
42085;DHT22;27746;52.228;20.890;2023-04-24T12:05:23;25.80;49.20
42085;DHT22;27746;52.228;20.890;2023-04-24T12:07:50;25.20;50.00
42085;DHT22;27746;52.228;20.890;2023-04-24T12:10:20;24.90;50.50
42085;DHT22;27746;52.228;20.890;2023-04-24T12:12:47;24.90;50.20
42085;DHT22;27746;52.228;20.890;2023-04-24T12:15:16;24.80;50.60
42085;DHT22;27746;52.228;20.890;2023-04-24T12:17:44;24.70;51.40
42085;DHT22;27746;52.228;20.890;2023-04-24T12:20:13;24.70;52.30
42085;DHT22;27746;52.228;20.890;2023-04-24T12:22:45;24.70;51.90
42085;DHT22;27746;52.228;20.890;2023-04-24T12:25:13;24.70;51.60
42085;DHT22;27746;52.228;20.890;2023-04-24T12:27:41;24.60;51.40
42085;DHT22;27746;52.228;20.890;2023-04-24T12:30:12;24.50;52.20
42085;DHT22;27746;52.228;20.890;2023-04-24T12:32:43;24.20;52.50
42085;DHT22;27746;52.228;20.890;2023-04-24T12:35:10;24.10;52.70
42085;DHT22;27746;52.228;20.890;2023-04-24T12:37:37;23.90;52.80
42085;DHT22;27746;52.228;20.890;2023-04-24T12:40:08;23.70;53.00
42085;DHT22;27746;52.228;20.890;2023-04-24T12:42:41;23.60;53.70
42085;DHT22;27746;52.228;20.890;2023-04-24T12:45:09;23.40;54.10
42085;DHT22;27746;52.228;20.890;2023-04-24T12:47:38;23.30;54.90
42085;DHT22;27746;52.228;20.890;2023-04-24T12:50:06;23.00;56.00
42085;DHT22;27746;52.228;20.890;2023-04-24T12:52:33;22.60;56.30
42085;DHT22;27746;52.228;20.890;2023-04-24T12:55:00;21.90;55.80
42085;DHT22;27746;52.228;20.890;2023-04-24T12:57:30;21.30;57.80
42085;DHT22;27746;52.228;20.890;2023-04-24T12:59:57;21.40;60.50
42085;DHT22;27746;52.228;20.890;2023-04-24T13:02:25;20.30;60.40
42085;DHT22;27746;52.228;20.890;2023-04-24T13:04:54;20.10;60.80
42085;DHT22;27746;52.228;20.890;2023-04-24T13:07:21;19.90;61.50
42085;DHT22;27746;52.228;20.890;2023-04-24T13:09:49;19.70;61.40
42085;DHT22;27746;52.228;20.890;2023-04-24T13:12:18;19.60;61.70
42085;DHT22;27746;52.228;20.890;2023-04-24T13:14:47;19.40;61.80
42085;DHT22;27746;52.228;20.890;2023-04-24T13:17:14;19.20;62.40
42085;DHT22;27746;52.228;20.890;2023-04-24T13:19:43;19.10;62.50
42085;DHT22;27746;52.228;20.890;2023-04-24T13:22:11;19.10;63.50
42085;DHT22;27746;52.228;20.890;2023-04-24T13:24:39;19.10;63.20
42085;DHT22;27746;52.228;20.890;2023-04-24T13:27:07;19.10;61.90
42085;DHT22;27746;52.228;20.890;2023-04-24T13:29:34;19.10;62.40
42085;DHT22;27746;52.228;20.890;2023-04-24T13:32:02;19.20;62.20
42085;DHT22;27746;52.228;20.890;2023-04-24T13:34:29;19.20;61.70
42085;DHT22;27746;52.228;20.890;2023-04-24T13:36:57;19.30;61.70
42085;DHT22;27746;52.228;20.890;2023-04-24T13:39:25;19.30;60.80
42085;DHT22;27746;52.228;20.890;2023-04-24T13:41:52;19.50;60.00
42085;DHT22;27746;52.228;20.890;2023-04-24T13:44:20;19.60;60.60
42085;DHT22;27746;52.228;20.890;2023-04-24T13:46:48;19.70;58.90
42085;DHT22;27746;52.228;20.890;2023-04-24T13:49:17;19.80;58.90
42085;DHT22;27746;52.228;20.890;2023-04-24T13:51:45;19.90;58.60
42085;DHT22;27746;52.228;20.890;2023-04-24T13:54:12;20.00;58.50
42085;DHT22;27746;52.228;20.890;2023-04-24T13:56:39;20.30;58.20
42085;DHT22;27746;52.228;20.890;2023-04-24T13:59:06;20.50;57.20
42085;DHT22;27746;52.228;20.890;2023-04-24T14:01:34;20.70;56.50
42085;DHT22;27746;52.228;20.890;2023-04-24T14:04:01;20.90;56.30
42085;DHT22;27746;52.228;20.890;2023-04-24T14:06:29;21.10;56.30
42085;DHT22;27746;52.228;20.890;2023-04-24T14:08:56;21.30;55.80
42085;DHT22;27746;52.228;20.890;2023-04-24T14:11:23;21.50;54.20
42085;DHT22;27746;52.228;20.890;2023-04-24T14:13:50;21.70;53.30
42085;DHT22;27746;52.228;20.890;2023-04-24T14:16:17;21.90;53.40
42085;DHT22;27746;52.228;20.890;2023-04-24T14:18:44;22.00;53.40
42085;DHT22;27746;52.228;20.890;2023-04-24T14:21:11;22.20;53.90
42085;DHT22;27746;52.228;20.890;2023-04-24T14:23:39;22.10;53.90
42085;DHT22;27746;52.228;20.890;2023-04-24T14:26:06;21.90;54.30
42085;DHT22;27746;52.228;20.890;2023-04-24T14:28:33;21.90;53.70
42085;DHT22;27746;52.228;20.890;2023-04-24T14:31:00;21.90;54.30
42085;DHT22;27746;52.228;20.890;2023-04-24T14:33:28;21.90;53.90
42085;DHT22;27746;52.228;20.890;2023-04-24T14:35:55;21.90;53.80
42085;DHT22;27746;52.228;20.890;2023-04-24T14:38:22;22.00;54.10
42085;DHT22;27746;52.228;20.890;2023-04-24T14:40:50;22.00;53.10
42085;DHT22;27746;52.228;20.890;2023-04-24T14:43:17;22.00;53.50
42085;DHT22;27746;52.228;20.890;2023-04-24T14:45:44;22.10;53.60
42085;DHT22;27746;52.228;20.890;2023-04-24T14:48:10;22.20;53.70
42085;DHT22;27746;52.228;20.890;2023-04-24T14:50:37;22.30;53.80
42085;DHT22;27746;52.228;20.890;2023-04-24T14:53:04;22.40;54.00
42085;DHT22;27746;52.228;20.890;2023-04-24T14:55:31;22.60;54.20
42085;DHT22;27746;52.228;20.890;2023-04-24T14:58:01;22.70;54.00
42085;DHT22;27746;52.228;20.890;2023-04-24T15:00:28;22.80;54.20
42085;DHT22;27746;52.228;20.890;2023-04-24T15:02:55;22.90;53.30
42085;DHT22;27746;52.228;20.890;2023-04-24T15:05:22;22.90;53.40
42085;DHT22;27746;52.228;20.890;2023-04-24T15:07:50;22.90;52.10
42085;DHT22;27746;52.228;20.890;2023-04-24T15:10:16;22.90;52.50
42085;DHT22;27746;52.228;20.890;2023-04-24T15:12:44;22.90;51.20
42085;DHT22;27746;52.228;20.890;2023-04-24T15:15:12;22.80;50.90
42085;DHT22;27746;52.228;20.890;2023-04-24T15:17:40;22.70;51.60
42085;DHT22;27746;52.228;20.890;2023-04-24T15:20:08;22.70;51.80
42085;DHT22;27746;52.228;20.890;2023-04-24T15:22:35;22.60;51.80
42085;DHT22;27746;52.228;20.890;2023-04-24T15:25:02;22.50;51.30
42085;DHT22;27746;52.228;20.890;2023-04-24T15:27:39;23.80;51.80
42085;DHT22;27746;52.228;20.890;2023-04-24T15:30:08;22.30;50.70
42085;DHT22;27746;52.228;20.890;2023-04-24T15:32:37;22.30;50.60
42085;DHT22;27746;52.228;20.890;2023-04-24T15:35:05;22.20;50.30
42085;DHT22;27746;52.228;20.890;2023-04-24T15:37:32;22.10;50.80
42085;DHT22;27746;52.228;20.890;2023-04-24T15:39:59;22.00;50.80
42085;DHT22;27746;52.228;20.890;2023-04-24T15:42:26;21.90;51.40
42085;DHT22;27746;52.228;20.890;2023-04-24T15:44:53;21.80;51.80
42085;DHT22;27746;52.228;20.890;2023-04-24T15:47:20;21.60;51.70
42085;DHT22;27746;52.228;20.890;2023-04-24T15:49:48;21.50;52.10
42085;DHT22;27746;52.228;20.890;2023-04-24T15:52:15;21.30;52.20
42085;DHT22;27746;52.228;20.890;2023-04-24T15:54:42;21.20;51.80
42085;DHT22;27746;52.228;20.890;2023-04-24T15:57:09;22.20;52.50
42085;DHT22;27746;52.228;20.890;2023-04-24T15:59:37;21.00;52.30
42085;DHT22;27746;52.228;20.890;2023-04-24T16:02:04;20.90;52.20
42085;DHT22;27746;52.228;20.890;2023-04-24T16:04:33;20.90;52.40
42085;DHT22;27746;52.228;20.890;2023-04-24T16:07:02;20.80;52.50
42085;DHT22;27746;52.228;20.890;2023-04-24T16:09:29;20.70;52.40
42085;DHT22;27746;52.228;20.890;2023-04-24T16:11:56;20.70;53.80
42085;DHT22;27746;52.228;20.890;2023-04-24T16:14:23;20.50;52.50
42085;DHT22;27746;52.228;20.890;2023-04-24T16:16:50;20.50;53.00
42085;DHT22;27746;52.228;20.890;2023-04-24T16:19:17;20.40;52.50
42085;DHT22;27746;52.228;20.890;2023-04-24T16:21:44;20.40;52.60